sensor_id;sensor_type;location;lat;lon;timestamp;P1;durP1;ratioP1;P2;durP2;ratioP2
38465;SDS011;24244;51.950;5.902;2022-09-12T00:00:20;16.40;;;11.73;;
38465;SDS011;24244;51.950;5.902;2022-09-12T00:02:48;16.92;;;12.30;;
38465;SDS011;24244;51.950;5.902;2022-09-12T00:05:16;17.45;;;12.73;;
38465;SDS011;24244;51.950;5.902;2022-09-12T00:07:41;17.45;;;12.48;;
38465;SDS011;24244;51.950;5.902;2022-09-12T00:10:07;16.85;;;12.27;;
38465;SDS011;24244;51.950;5.902;2022-09-12T00:12:33;17.23;;;12.52;;
38465;SDS011;24244;51.950;5.902;2022-09-12T00:14:58;17.58;;;12.73;;
38465;SDS011;24244;51.950;5.902;2022-09-12T00:17:24;19.35;;;12.15;;
38465;SDS011;24244;51.950;5.902;2022-09-12T00:19:51;17.02;;;12.55;;
38465;SDS011;24244;51.950;5.902;2022-09-12T00:22:17;18.00;;;13.38;;
38465;SDS011;24244;51.950;5.902;2022-09-12T00:24:42;18.75;;;13.68;;
38465;SDS011;24244;51.950;5.902;2022-09-12T00:27:08;17.67;;;12.73;;
38465;SDS011;24244;51.950;5.902;2022-09-12T00:29:33;18.77;;;13.25;;
38465;SDS011;24244;51.950;5.902;2022-09-12T00:31:59;18.75;;;13.50;;
38465;SDS011;24244;51.950;5.902;2022-09-12T00:34:24;18.42;;;14.00;;
38465;SDS011;24244;51.950;5.902;2022-09-12T00:36:51;17.63;;;12.95;;
38465;SDS011;24244;51.950;5.902;2022-09-12T00:39:17;18.58;;;13.68;;
38465;SDS011;24244;51.950;5.902;2022-09-12T00:41:43;18.95;;;13.55;;
38465;SDS011;24244;51.950;5.902;2022-09-12T00:47:11;18.63;;;13.55;;
38465;SDS011;24244;51.950;5.902;2022-09-12T00:49:41;19.83;;;13.43;;
38465;SDS011;24244;51.950;5.902;2022-09-12T00:52:12;19.52;;;13.68;;
38465;SDS011;24244;51.950;5.902;2022-09-12T00:54:41;20.25;;;14.30;;
38465;SDS011;24244;51.950;5.902;2022-09-12T00:57:10;18.17;;;13.77;;
38465;SDS011;24244;51.950;5.902;2022-09-12T00:59:40;20.48;;;14.30;;
38465;SDS011;24244;51.950;5.902;2022-09-12T01:02:09;19.05;;;13.73;;
38465;SDS011;24244;51.950;5.902;2022-09-12T01:04:36;19.30;;;14.30;;
38465;SDS011;24244;51.950;5.902;2022-09-12T01:07:05;19.30;;;13.82;;
38465;SDS011;24244;51.950;5.902;2022-09-12T01:09:33;20.38;;;14.63;;
38465;SDS011;24244;51.950;5.902;2022-09-12T01:12:00;19.13;;;14.52;;
38465;SDS011;24244;51.950;5.902;2022-09-12T01:14:26;19.98;;;13.63;;
38465;SDS011;24244;51.950;5.902;2022-09-12T01:16:53;20.27;;;14.88;;
38465;SDS011;24244;51.950;5.902;2022-09-12T01:19:24;20.42;;;14.38;;
38465;SDS011;24244;51.950;5.902;2022-09-12T01:22:10;20.40;;;13.88;;
38465;SDS011;24244;51.950;5.902;2022-09-12T01:24:57;18.75;;;13.82;;
38465;SDS011;24244;51.950;5.902;2022-09-12T01:27:46;18.77;;;13.57;;
38465;SDS011;24244;51.950;5.902;2022-09-12T01:33:16;18.30;;;13.52;;
38465;SDS011;24244;51.950;5.902;2022-09-12T01:35:59;19.50;;;14.57;;
38465;SDS011;24244;51.950;5.902;2022-09-12T01:38:49;18.65;;;13.27;;
38465;SDS011;24244;51.950;5.902;2022-09-12T01:41:23;19.75;;;13.77;;
38465;SDS011;24244;51.950;5.902;2022-09-12T01:43:55;19.65;;;13.88;;
38465;SDS011;24244;51.950;5.902;2022-09-12T01:46:29;18.02;;;12.90;;
38465;SDS011;24244;51.950;5.902;2022-09-12T01:49:00;20.42;;;14.15;;
38465;SDS011;24244;51.950;5.902;2022-09-12T01:51:31;20.98;;;14.18;;
38465;SDS011;24244;51.950;5.902;2022-09-12T01:54:04;22.20;;;15.30;;
38465;SDS011;24244;51.950;5.902;2022-09-12T01:56:34;22.98;;;16.25;;
38465;SDS011;24244;51.950;5.902;2022-09-12T01:59:04;23.67;;;16.33;;
38465;SDS011;24244;51.950;5.902;2022-09-12T02:01:35;23.58;;;15.70;;
38465;SDS011;24244;51.950;5.902;2022-09-12T02:04:07;22.52;;;16.38;;
38465;SDS011;24244;51.950;5.902;2022-09-12T02:06:36;25.05;;;16.67;;
38465;SDS011;24244;51.950;5.902;2022-09-12T02:09:09;24.13;;;16.83;;
38465;SDS011;24244;51.950;5.902;2022-09-12T02:11:40;26.23;;;17.65;;
38465;SDS011;24244;51.950;5.902;2022-09-12T02:14:08;23.95;;;16.77;;
38465;SDS011;24244;51.950;5.902;2022-09-12T02:16:39;23.27;;;16.17;;
38465;SDS011;24244;51.950;5.902;2022-09-12T02:19:07;23.73;;;16.92;;
38465;SDS011;24244;51.950;5.902;2022-09-12T02:21:36;23.83;;;17.25;;
38465;SDS011;24244;51.950;5.902;2022-09-12T02:24:09;23.60;;;16.63;;
38465;SDS011;24244;51.950;5.902;2022-09-12T02:26:40;22.85;;;16.40;;
38465;SDS011;24244;51.950;5.902;2022-09-12T02:29:11;25.20;;;16.95;;
38465;SDS011;24244;51.950;5.902;2022-09-12T02:31:39;23.73;;;16.67;;
38465;SDS011;24244;51.950;5.902;2022-09-12T02:34:11;23.75;;;16.52;;
38465;SDS011;24244;51.950;5.902;2022-09-12T02:36:47;24.40;;;16.55;;
38465;SDS011;24244;51.950;5.902;2022-09-12T02:39:19;24.13;;;16.88;;
38465;SDS011;24244;51.950;5.902;2022-09-12T02:41:45;24.10;;;16.55;;
38465;SDS011;24244;51.950;5.902;2022-09-12T02:44:11;23.80;;;17.23;;
38465;SDS011;24244;51.950;5.902;2022-09-12T02:46:39;25.40;;;17.45;;
38465;SDS011;24244;51.950;5.902;2022-09-12T02:49:08;24.08;;;16.63;;
38465;SDS011;24244;51.950;5.902;2022-09-12T02:51:33;22.92;;;16.05;;
38465;SDS011;24244;51.950;5.902;2022-09-12T02:53:59;25.50;;;17.08;;
38465;SDS011;24244;51.950;5.902;2022-09-12T02:56:28;25.45;;;17.77;;
38465;SDS011;24244;51.950;5.902;2022-09-12T02:58:55;23.67;;;16.77;;
38465;SDS011;24244;51.950;5.902;2022-09-12T03:01:27;24.42;;;16.98;;
38465;SDS011;24244;51.950;5.902;2022-09-12T03:04:07;26.65;;;17.20;;
38465;SDS011;24244;51.950;5.902;2022-09-12T03:06:50;24.02;;;16.73;;
38465;SDS011;24244;51.950;5.902;2022-09-12T03:09:25;27.23;;;18.08;;
38465;SDS011;24244;51.950;5.902;2022-09-12T03:12:01;25.63;;;16.85;;
38465;SDS011;24244;51.950;5.902;2022-09-12T03:14:37;21.77;;;15.45;;
38465;SDS011;24244;51.950;5.902;2022-09-12T03:17:13;24.73;;;17.67;;
38465;SDS011;24244;51.950;5.902;2022-09-12T03:19:53;24.13;;;16.88;;
38465;SDS011;24244;51.950;5.902;2022-09-12T03:22:27;24.85;;;17.23;;
38465;SDS011;24244;51.950;5.902;2022-09-12T03:25:00;24.52;;;17.08;;
38465;SDS011;24244;51.950;5.902;2022-09-12T03:27:31;27.38;;;18.05;;
38465;SDS011;24244;51.950;5.902;2022-09-12T03:30:00;24.98;;;17.02;;
38465;SDS011;24244;51.950;5.902;2022-09-12T03:32:40;25.65;;;17.75;;
38465;SDS011;24244;51.950;5.902;2022-09-12T03:35:08;25.10;;;17.40;;
38465;SDS011;24244;51.950;5.902;2022-09-12T03:37:34;27.73;;;17.85;;
38465;SDS011;24244;51.950;5.902;2022-09-12T03:40:00;24.60;;;17.08;;
38465;SDS011;24244;51.950;5.902;2022-09-12T03:42:26;25.38;;;17.08;;
38465;SDS011;24244;51.950;5.902;2022-09-12T03:44:51;24.85;;;17.85;;
38465;SDS011;24244;51.950;5.902;2022-09-12T03:47:17;25.98;;;17.90;;
38465;SDS011;24244;51.950;5.902;2022-09-12T03:49:42;25.23;;;17.42;;
38465;SDS011;24244;51.950;5.902;2022-09-12T03:52:09;23.58;;;17.17;;
38465;SDS011;24244;51.950;5.902;2022-09-12T03:54:34;26.20;;;17.55;;
38465;SDS011;24244;51.950;5.902;2022-09-12T03:57:00;26.90;;;18.65;;
38465;SDS011;24244;51.950;5.902;2022-09-12T03:59:25;26.60;;;17.45;;
38465;SDS011;24244;51.950;5.902;2022-09-12T04:01:51;25.75;;;17.90;;
38465;SDS011;24244;51.950;5.902;2022-09-12T04:04:16;25.67;;;17.95;;
38465;SDS011;24244;51.950;5.902;2022-09-12T04:06:42;26.60;;;18.33;;
38465;SDS011;24244;51.950;5.902;2022-09-12T04:09:09;25.65;;;17.23;;
38465;SDS011;24244;51.950;5.902;2022-09-12T04:11:34;27.80;;;18.75;;
38465;SDS011;24244;51.950;5.902;2022-09-12T04:14:00;26.02;;;17.92;;
38465;SDS011;24244;51.950;5.902;2022-09-12T04:16:26;26.25;;;17.95;;
38465;SDS011;24244;51.950;5.902;2022-09-12T04:18:51;25.40;;;17.42;;
38465;SDS011;24244;51.950;5.902;2022-09-12T04:21:18;25.95;;;18.13;;
38465;SDS011;24244;51.950;5.902;2022-09-12T04:23:46;26.63;;;17.60;;
38465;SDS011;24244;51.950;5.902;2022-09-12T04:26:13;26.02;;;17.95;;
38465;SDS011;24244;51.950;5.902;2022-09-12T04:28:41;27.02;;;17.92;;
38465;SDS011;24244;51.950;5.902;2022-09-12T04:31:07;25.45;;;17.52;;
38465;SDS011;24244;51.950;5.902;2022-09-12T04:33:34;25.70;;;17.20;;
38465;SDS011;24244;51.950;5.902;2022-09-12T04:36:04;26.50;;;17.45;;
38465;SDS011;24244;51.950;5.902;2022-09-12T04:38:30;28.50;;;18.48;;
38465;SDS011;24244;51.950;5.902;2022-09-12T04:40:56;26.83;;;18.48;;
38465;SDS011;24244;51.950;5.902;2022-09-12T04:43:23;27.38;;;18.02;;
38465;SDS011;24244;51.950;5.902;2022-09-12T04:45:48;28.58;;;18.90;;
38465;SDS011;24244;51.950;5.902;2022-09-12T04:48:14;28.08;;;18.85;;
38465;SDS011;24244;51.950;5.902;2022-09-12T04:50:39;28.58;;;18.63;;
38465;SDS011;24244;51.950;5.902;2022-09-12T04:53:05;30.23;;;19.10;;
38465;SDS011;24244;51.950;5.902;2022-09-12T04:55:32;29.27;;;19.40;;
38465;SDS011;24244;51.950;5.902;2022-09-12T04:57:59;30.02;;;18.85;;
38465;SDS011;24244;51.950;5.902;2022-09-12T05:00:27;29.13;;;18.85;;
38465;SDS011;24244;51.950;5.902;2022-09-12T05:02:53;28.65;;;18.20;;
38465;SDS011;24244;51.950;5.902;2022-09-12T05:05:18;29.48;;;19.35;;
38465;SDS011;24244;51.950;5.902;2022-09-12T05:07:44;26.00;;;18.30;;
38465;SDS011;24244;51.950;5.902;2022-09-12T05:10:09;32.67;;;20.50;;
38465;SDS011;24244;51.950;5.902;2022-09-12T05:12:35;31.02;;;19.42;;
38465;SDS011;24244;51.950;5.902;2022-09-12T05:15:01;31.23;;;19.33;;
38465;SDS011;24244;51.950;5.902;2022-09-12T05:17:29;29.17;;;18.98;;
38465;SDS011;24244;51.950;5.902;2022-09-12T05:19:54;30.25;;;19.15;;
38465;SDS011;24244;51.950;5.902;2022-09-12T05:22:20;28.30;;;18.10;;
38465;SDS011;24244;51.950;5.902;2022-09-12T05:24:45;30.92;;;19.63;;
38465;SDS011;24244;51.950;5.902;2022-09-12T05:27:12;27.95;;;18.58;;
38465;SDS011;24244;51.950;5.902;2022-09-12T05:29:38;29.75;;;18.60;;
38465;SDS011;24244;51.950;5.902;2022-09-12T05:32:03;32.00;;;20.23;;
38465;SDS011;24244;51.950;5.902;2022-09-12T05:34:30;31.95;;;20.13;;
38465;SDS011;24244;51.950;5.902;2022-09-12T05:36:56;29.73;;;18.80;;
38465;SDS011;24244;51.950;5.902;2022-09-12T05:39:21;30.88;;;19.48;;
38465;SDS011;24244;51.950;5.902;2022-09-12T05:41:47;31.77;;;20.00;;
38465;SDS011;24244;51.950;5.902;2022-09-12T05:44:13;31.45;;;19.52;;
38465;SDS011;24244;51.950;5.902;2022-09-12T05:46:39;29.00;;;19.35;;
38465;SDS011;24244;51.950;5.902;2022-09-12T05:49:07;28.55;;;18.05;;
38465;SDS011;24244;51.950;5.902;2022-09-12T05:51:36;29.05;;;19.25;;
38465;SDS011;24244;51.950;5.902;2022-09-12T05:54:04;30.65;;;19.38;;
38465;SDS011;24244;51.950;5.902;2022-09-12T05:56:33;31.48;;;19.50;;
38465;SDS011;24244;51.950;5.902;2022-09-12T05:59:03;33.70;;;19.42;;
38465;SDS011;24244;51.950;5.902;2022-09-12T06:01:31;33.78;;;20.33;;
38465;SDS011;24244;51.950;5.902;2022-09-12T06:03:59;33.00;;;20.53;;
38465;SDS011;24244;51.950;5.902;2022-09-12T06:06:26;33.72;;;20.42;;
38465;SDS011;24244;51.950;5.902;2022-09-12T06:08:56;34.55;;;21.55;;
38465;SDS011;24244;51.950;5.902;2022-09-12T06:11:24;36.92;;;20.80;;
38465;SDS011;24244;51.950;5.902;2022-09-12T06:13:51;32.93;;;20.40;;
38465;SDS011;24244;51.950;5.902;2022-09-12T06:16:17;33.30;;;21.15;;
38465;SDS011;24244;51.950;5.902;2022-09-12T06:18:45;34.20;;;20.58;;
38465;SDS011;24244;51.950;5.902;2022-09-12T06:21:13;34.67;;;21.38;;
38465;SDS011;24244;51.950;5.902;2022-09-12T06:23:39;37.00;;;21.52;;
38465;SDS011;24244;51.950;5.902;2022-09-12T06:26:07;31.88;;;20.05;;
38465;SDS011;24244;51.950;5.902;2022-09-12T06:28:34;34.50;;;21.45;;
38465;SDS011;24244;51.950;5.902;2022-09-12T06:31:02;37.33;;;21.85;;
38465;SDS011;24244;51.950;5.902;2022-09-12T06:33:28;34.55;;;20.85;;
38465;SDS011;24244;51.950;5.902;2022-09-12T06:35:55;38.80;;;21.60;;
38465;SDS011;24244;51.950;5.902;2022-09-12T06:38:27;36.25;;;21.00;;
38465;SDS011;24244;51.950;5.902;2022-09-12T06:40:52;36.30;;;21.67;;
38465;SDS011;24244;51.950;5.902;2022-09-12T06:43:19;36.58;;;22.10;;
38465;SDS011;24244;51.950;5.902;2022-09-12T06:45:47;36.85;;;22.35;;
38465;SDS011;24244;51.950;5.902;2022-09-12T06:48:13;36.88;;;21.95;;
38465;SDS011;24244;51.950;5.902;2022-09-12T06:50:38;38.05;;;22.55;;
38465;SDS011;24244;51.950;5.902;2022-09-12T06:53:04;42.53;;;24.17;;
38465;SDS011;24244;51.950;5.902;2022-09-12T06:55:29;40.28;;;23.45;;
38465;SDS011;24244;51.950;5.902;2022-09-12T06:57:55;36.35;;;22.95;;
38465;SDS011;24244;51.950;5.902;2022-09-12T07:00:22;38.92;;;22.40;;
38465;SDS011;24244;51.950;5.902;2022-09-12T07:02:47;41.10;;;23.13;;
38465;SDS011;24244;51.950;5.902;2022-09-12T07:05:13;41.63;;;24.60;;
38465;SDS011;24244;51.950;5.902;2022-09-12T07:07:39;40.72;;;24.10;;
38465;SDS011;24244;51.950;5.902;2022-09-12T07:10:05;41.75;;;24.98;;
38465;SDS011;24244;51.950;5.902;2022-09-12T07:12:30;43.00;;;25.65;;
38465;SDS011;24244;51.950;5.902;2022-09-12T07:14:56;41.67;;;24.52;;
38465;SDS011;24244;51.950;5.902;2022-09-12T07:17:23;44.85;;;25.17;;
38465;SDS011;24244;51.950;5.902;2022-09-12T07:19:48;40.60;;;24.83;;
38465;SDS011;24244;51.950;5.902;2022-09-12T07:22:14;45.13;;;25.20;;
38465;SDS011;24244;51.950;5.902;2022-09-12T07:24:39;46.13;;;27.02;;
38465;SDS011;24244;51.950;5.902;2022-09-12T07:27:05;44.63;;;26.08;;
38465;SDS011;24244;51.950;5.902;2022-09-12T07:29:30;48.15;;;27.33;;
38465;SDS011;24244;51.950;5.902;2022-09-12T07:31:56;44.92;;;27.67;;
38465;SDS011;24244;51.950;5.902;2022-09-12T07:34:23;48.67;;;27.85;;
38465;SDS011;24244;51.950;5.902;2022-09-12T07:36:48;45.17;;;27.08;;
38465;SDS011;24244;51.950;5.902;2022-09-12T07:39:14;48.58;;;28.35;;
38465;SDS011;24244;51.950;5.902;2022-09-12T07:41:39;44.60;;;27.80;;
38465;SDS011;24244;51.950;5.902;2022-09-12T07:44:05;46.20;;;27.40;;
38465;SDS011;24244;51.950;5.902;2022-09-12T07:46:31;47.30;;;28.30;;
38465;SDS011;24244;51.950;5.902;2022-09-12T07:48:57;44.78;;;27.70;;
38465;SDS011;24244;51.950;5.902;2022-09-12T07:51:26;45.63;;;27.25;;
38465;SDS011;24244;51.950;5.902;2022-09-12T07:53:53;40.85;;;25.20;;
38465;SDS011;24244;51.950;5.902;2022-09-12T07:56:20;43.28;;;26.48;;
38465;SDS011;24244;51.950;5.902;2022-09-12T07:58:46;48.45;;;28.63;;
38465;SDS011;24244;51.950;5.902;2022-09-12T08:01:12;45.03;;;27.58;;
38465;SDS011;24244;51.950;5.902;2022-09-12T08:03:39;45.80;;;25.88;;
38465;SDS011;24244;51.950;5.902;2022-09-12T08:06:05;45.53;;;28.13;;
38465;SDS011;24244;51.950;5.902;2022-09-12T08:08:33;42.30;;;25.60;;
38465;SDS011;24244;51.950;5.902;2022-09-12T08:11:00;37.85;;;23.58;;
38465;SDS011;24244;51.950;5.902;2022-09-12T08:13:30;40.72;;;25.00;;
38465;SDS011;24244;51.950;5.902;2022-09-12T08:15:56;39.55;;;25.60;;
38465;SDS011;24244;51.950;5.902;2022-09-12T08:18:23;37.92;;;24.83;;
38465;SDS011;24244;51.950;5.902;2022-09-12T08:20:54;38.63;;;25.70;;
38465;SDS011;24244;51.950;5.902;2022-09-12T08:23:20;41.58;;;25.60;;
38465;SDS011;24244;51.950;5.902;2022-09-12T08:25:48;38.22;;;24.00;;
38465;SDS011;24244;51.950;5.902;2022-09-12T08:28:14;39.80;;;24.55;;
38465;SDS011;24244;51.950;5.902;2022-09-12T08:30:39;37.22;;;24.70;;
38465;SDS011;24244;51.950;5.902;2022-09-12T08:33:05;39.42;;;25.50;;
38465;SDS011;24244;51.950;5.902;2022-09-12T08:35:31;38.78;;;23.63;;
38465;SDS011;24244;51.950;5.902;2022-09-12T08:37:57;38.60;;;24.02;;
38465;SDS011;24244;51.950;5.902;2022-09-12T08:40:22;38.10;;;23.48;;
38465;SDS011;24244;51.950;5.902;2022-09-12T08:42:53;37.03;;;23.08;;
38465;SDS011;24244;51.950;5.902;2022-09-12T08:45:27;34.45;;;22.10;;
38465;SDS011;24244;51.950;5.902;2022-09-12T08:47:59;35.20;;;22.45;;
38465;SDS011;24244;51.950;5.902;2022-09-12T08:50:28;31.88;;;21.52;;
38465;SDS011;24244;51.950;5.902;2022-09-12T08:52:55;31.45;;;19.88;;
38465;SDS011;24244;51.950;5.902;2022-09-12T08:55:28;36.88;;;21.75;;
38465;SDS011;24244;51.950;5.902;2022-09-12T08:57:57;33.55;;;21.20;;
38465;SDS011;24244;51.950;5.902;2022-09-12T09:00:25;33.40;;;21.50;;
38465;SDS011;24244;51.950;5.902;2022-09-12T09:03:03;33.85;;;21.42;;
38465;SDS011;24244;51.950;5.902;2022-09-12T09:05:47;32.88;;;20.58;;
38465;SDS011;24244;51.950;5.902;2022-09-12T09:08:19;29.77;;;18.98;;
38465;SDS011;24244;51.950;5.902;2022-09-12T09:10:56;33.25;;;19.95;;
38465;SDS011;24244;51.950;5.902;2022-09-12T09:13:45;31.35;;;20.02;;
38465;SDS011;24244;51.950;5.902;2022-09-12T09:16:41;28.73;;;17.92;;
38465;SDS011;24244;51.950;5.902;2022-09-12T09:19:10;28.48;;;18.88;;
38465;SDS011;24244;51.950;5.902;2022-09-12T09:21:41;28.23;;;17.83;;
38465;SDS011;24244;51.950;5.902;2022-09-12T09:24:10;26.10;;;16.88;;
38465;SDS011;24244;51.950;5.902;2022-09-12T09:26:39;29.30;;;18.30;;
38465;SDS011;24244;51.950;5.902;2022-09-12T09:29:13;28.73;;;18.40;;
38465;SDS011;24244;51.950;5.902;2022-09-12T09:31:41;29.02;;;18.38;;
38465;SDS011;24244;51.950;5.902;2022-09-12T09:34:11;27.20;;;18.33;;
38465;SDS011;24244;51.950;5.902;2022-09-12T09:36:43;29.30;;;18.33;;
38465;SDS011;24244;51.950;5.902;2022-09-12T09:39:15;26.88;;;17.67;;
38465;SDS011;24244;51.950;5.902;2022-09-12T09:41:50;25.45;;;16.73;;
38465;SDS011;24244;51.950;5.902;2022-09-12T09:44:27;27.55;;;17.17;;
38465;SDS011;24244;51.950;5.902;2022-09-12T09:46:54;26.33;;;16.33;;
38465;SDS011;24244;51.950;5.902;2022-09-12T09:51:47;21.25;;;14.05;;
38465;SDS011;24244;51.950;5.902;2022-09-12T09:54:16;20.98;;;14.18;;
38465;SDS011;24244;51.950;5.902;2022-09-12T09:56:45;21.80;;;14.57;;
38465;SDS011;24244;51.950;5.902;2022-09-12T09:59:11;20.42;;;13.10;;
38465;SDS011;24244;51.950;5.902;2022-09-12T10:01:45;19.35;;;12.80;;
38465;SDS011;24244;51.950;5.902;2022-09-12T10:04:19;19.90;;;12.75;;
38465;SDS011;24244;51.950;5.902;2022-09-12T10:06:45;16.13;;;11.13;;
38465;SDS011;24244;51.950;5.902;2022-09-12T10:09:18;16.60;;;11.02;;
38465;SDS011;24244;51.950;5.902;2022-09-12T10:11:47;15.82;;;10.60;;
38465;SDS011;24244;51.950;5.902;2022-09-12T10:14:27;18.10;;;10.73;;
38465;SDS011;24244;51.950;5.902;2022-09-12T10:16:57;13.40;;;9.18;;
38465;SDS011;24244;51.950;5.902;2022-09-12T10:19:25;14.82;;;9.25;;
38465;SDS011;24244;51.950;5.902;2022-09-12T10:21:59;13.77;;;8.90;;
38465;SDS011;24244;51.950;5.902;2022-09-12T10:24:27;13.75;;;8.68;;
38465;SDS011;24244;51.950;5.902;2022-09-12T10:26:58;14.10;;;9.18;;
38465;SDS011;24244;51.950;5.902;2022-09-12T10:29:33;13.38;;;8.65;;
38465;SDS011;24244;51.950;5.902;2022-09-12T10:32:05;14.23;;;8.75;;
38465;SDS011;24244;51.950;5.902;2022-09-12T10:34:33;13.35;;;8.45;;
38465;SDS011;24244;51.950;5.902;2022-09-12T10:37:02;13.20;;;8.38;;
38465;SDS011;24244;51.950;5.902;2022-09-12T10:41:56;12.48;;;7.68;;
38465;SDS011;24244;51.950;5.902;2022-09-12T10:44:23;11.85;;;7.57;;
38465;SDS011;24244;51.950;5.902;2022-09-12T10:46:50;12.45;;;7.97;;
38465;SDS011;24244;51.950;5.902;2022-09-12T10:49:32;12.90;;;7.30;;
38465;SDS011;24244;51.950;5.902;2022-09-12T10:52:14;11.88;;;7.18;;
38465;SDS011;24244;51.950;5.902;2022-09-12T10:54:41;11.60;;;7.47;;
38465;SDS011;24244;51.950;5.902;2022-09-12T10:57:16;11.32;;;7.07;;
38465;SDS011;24244;51.950;5.902;2022-09-12T11:00:07;11.15;;;7.05;;
38465;SDS011;24244;51.950;5.902;2022-09-12T11:02:47;11.18;;;7.05;;
38465;SDS011;24244;51.950;5.902;2022-09-12T11:05:19;12.20;;;7.80;;
38465;SDS011;24244;51.950;5.902;2022-09-12T11:07:56;11.82;;;7.03;;
38465;SDS011;24244;51.950;5.902;2022-09-12T11:10:30;10.98;;;6.95;;
38465;SDS011;24244;51.950;5.902;2022-09-12T11:13:09;11.55;;;6.93;;
38465;SDS011;24244;51.950;5.902;2022-09-12T11:15:50;11.27;;;6.78;;
38465;SDS011;24244;51.950;5.902;2022-09-12T11:21:32;10.13;;;6.15;;
38465;SDS011;24244;51.950;5.902;2022-09-12T11:24:18;8.98;;;5.75;;
38465;SDS011;24244;51.950;5.902;2022-09-12T11:27:11;9.13;;;5.60;;
38465;SDS011;24244;51.950;5.902;2022-09-12T11:29:51;11.15;;;6.53;;
38465;SDS011;24244;51.950;5.902;2022-09-12T11:32:27;9.02;;;5.90;;
38465;SDS011;24244;51.950;5.902;2022-09-12T11:35:06;10.32;;;6.28;;
38465;SDS011;24244;51.950;5.902;2022-09-12T11:37:47;8.90;;;5.55;;
38465;SDS011;24244;51.950;5.902;2022-09-12T11:40:28;10.02;;;4.95;;
38465;SDS011;24244;51.950;5.902;2022-09-12T11:43:04;9.00;;;5.07;;
38465;SDS011;24244;51.950;5.902;2022-09-12T11:45:38;8.73;;;5.00;;
38465;SDS011;24244;51.950;5.902;2022-09-12T11:48:08;8.70;;;5.15;;
38465;SDS011;24244;51.950;5.902;2022-09-12T11:50:38;8.70;;;5.20;;
38465;SDS011;24244;51.950;5.902;2022-09-12T11:53:08;8.70;;;5.18;;
38465;SDS011;24244;51.950;5.902;2022-09-12T11:55:43;9.75;;;5.82;;
38465;SDS011;24244;51.950;5.902;2022-09-12T11:58:18;9.15;;;5.70;;
38465;SDS011;24244;51.950;5.902;2022-09-12T12:00:49;8.80;;;5.55;;
38465;SDS011;24244;51.950;5.902;2022-09-12T12:03:19;9.48;;;5.65;;
38465;SDS011;24244;51.950;5.902;2022-09-12T12:05:52;9.50;;;5.40;;
38465;SDS011;24244;51.950;5.902;2022-09-12T12:08:23;8.65;;;5.10;;
38465;SDS011;24244;51.950;5.902;2022-09-12T12:10:51;7.75;;;4.80;;
38465;SDS011;24244;51.950;5.902;2022-09-12T12:13:21;8.32;;;4.47;;
38465;SDS011;24244;51.950;5.902;2022-09-12T12:15:52;8.13;;;4.50;;
38465;SDS011;24244;51.950;5.902;2022-09-12T12:18:21;8.43;;;4.90;;
38465;SDS011;24244;51.950;5.902;2022-09-12T12:20:48;9.18;;;5.10;;
38465;SDS011;24244;51.950;5.902;2022-09-12T12:23:23;8.10;;;4.85;;
38465;SDS011;24244;51.950;5.902;2022-09-12T12:25:51;9.00;;;4.63;;
38465;SDS011;24244;51.950;5.902;2022-09-12T12:31:22;6.95;;;3.88;;
38465;SDS011;24244;51.950;5.902;2022-09-12T12:33:51;7.75;;;4.35;;
38465;SDS011;24244;51.950;5.902;2022-09-12T12:36:39;7.95;;;4.07;;
38465;SDS011;24244;51.950;5.902;2022-09-12T12:42:10;7.38;;;3.97;;
38465;SDS011;24244;51.950;5.902;2022-09-12T12:48:26;7.47;;;3.83;;
38465;SDS011;24244;51.950;5.902;2022-09-12T12:51:15;6.97;;;3.78;;
38465;SDS011;24244;51.950;5.902;2022-09-12T12:53:50;8.60;;;4.13;;
38465;SDS011;24244;51.950;5.902;2022-09-12T12:56:28;7.05;;;4.32;;
38465;SDS011;24244;51.950;5.902;2022-09-12T12:59:02;8.63;;;4.47;;
38465;SDS011;24244;51.950;5.902;2022-09-12T13:01:35;8.70;;;4.70;;
38465;SDS011;24244;51.950;5.902;2022-09-12T13:04:10;7.80;;;4.30;;
38465;SDS011;24244;51.950;5.902;2022-09-12T13:06:39;9.18;;;5.03;;
38465;SDS011;24244;51.950;5.902;2022-09-12T13:11:34;7.35;;;4.15;;
38465;SDS011;24244;51.950;5.902;2022-09-12T13:14:04;7.18;;;3.83;;
38465;SDS011;24244;51.950;5.902;2022-09-12T13:16:34;7.18;;;3.88;;
38465;SDS011;24244;51.950;5.902;2022-09-12T13:19:02;7.70;;;4.15;;
38465;SDS011;24244;51.950;5.902;2022-09-12T13:21:30;8.90;;;4.00;;
38465;SDS011;24244;51.950;5.902;2022-09-12T13:23:59;8.45;;;4.00;;
38465;SDS011;24244;51.950;5.902;2022-09-12T13:26:26;7.30;;;4.13;;
38465;SDS011;24244;51.950;5.902;2022-09-12T13:31:40;7.68;;;3.63;;
38465;SDS011;24244;51.950;5.902;2022-09-12T13:34:06;7.20;;;3.55;;
38465;SDS011;24244;51.950;5.902;2022-09-12T13:36:45;6.90;;;3.65;;
38465;SDS011;24244;51.950;5.902;2022-09-12T13:39:23;6.47;;;3.53;;
38465;SDS011;24244;51.950;5.902;2022-09-12T13:41:57;7.63;;;3.88;;
38465;SDS011;24244;51.950;5.902;2022-09-12T13:44:56;8.20;;;3.42;;
38465;SDS011;24244;51.950;5.902;2022-09-12T13:47:24;6.95;;;3.20;;
38465;SDS011;24244;51.950;5.902;2022-09-12T13:49:54;7.05;;;4.40;;
38465;SDS011;24244;51.950;5.902;2022-09-12T13:52:21;6.50;;;3.58;;
38465;SDS011;24244;51.950;5.902;2022-09-12T13:54:50;6.47;;;3.40;;
38465;SDS011;24244;51.950;5.902;2022-09-12T13:57:26;7.07;;;3.50;;
38465;SDS011;24244;51.950;5.902;2022-09-12T13:59:56;7.40;;;3.35;;
38465;SDS011;24244;51.950;5.902;2022-09-12T14:02:24;6.82;;;3.55;;
38465;SDS011;24244;51.950;5.902;2022-09-12T14:07:42;6.45;;;3.38;;
38465;SDS011;24244;51.950;5.902;2022-09-12T14:10:20;5.97;;;3.17;;
38465;SDS011;24244;51.950;5.902;2022-09-12T14:12:50;6.50;;;3.15;;
38465;SDS011;24244;51.950;5.902;2022-09-12T14:15:19;6.28;;;3.17;;
38465;SDS011;24244;51.950;5.902;2022-09-12T14:17:49;6.80;;;3.40;;
38465;SDS011;24244;51.950;5.902;2022-09-12T14:20:19;6.00;;;2.97;;
38465;SDS011;24244;51.950;5.902;2022-09-12T14:22:47;7.15;;;3.53;;
38465;SDS011;24244;51.950;5.902;2022-09-12T14:25:14;6.97;;;3.20;;
38465;SDS011;24244;51.950;5.902;2022-09-12T14:27:42;7.53;;;3.33;;
38465;SDS011;24244;51.950;5.902;2022-09-12T14:30:20;6.18;;;3.38;;
38465;SDS011;24244;51.950;5.902;2022-09-12T14:33:00;6.93;;;3.30;;
38465;SDS011;24244;51.950;5.902;2022-09-12T14:35:28;6.65;;;3.38;;
38465;SDS011;24244;51.950;5.902;2022-09-12T14:37:54;8.07;;;3.78;;
38465;SDS011;24244;51.950;5.902;2022-09-12T14:40:20;6.55;;;3.55;;
38465;SDS011;24244;51.950;5.902;2022-09-12T14:42:47;6.45;;;3.38;;
38465;SDS011;24244;51.950;5.902;2022-09-12T14:45:15;6.90;;;3.67;;
38465;SDS011;24244;51.950;5.902;2022-09-12T14:50:14;6.35;;;3.35;;
38465;SDS011;24244;51.950;5.902;2022-09-12T14:55:18;6.82;;;3.30;;
38465;SDS011;24244;51.950;5.902;2022-09-12T14:57:48;6.10;;;3.28;;
38465;SDS011;24244;51.950;5.902;2022-09-12T15:00:31;6.30;;;2.67;;
38465;SDS011;24244;51.950;5.902;2022-09-12T15:05:48;6.13;;;3.10;;
38465;SDS011;24244;51.950;5.902;2022-09-12T15:08:14;6.50;;;3.10;;
38465;SDS011;24244;51.950;5.902;2022-09-12T15:10:40;6.53;;;3.15;;
38465;SDS011;24244;51.950;5.902;2022-09-12T15:13:10;6.25;;;3.03;;
38465;SDS011;24244;51.950;5.902;2022-09-12T15:15:38;5.88;;;3.05;;
38465;SDS011;24244;51.950;5.902;2022-09-12T15:18:05;6.17;;;2.80;;
38465;SDS011;24244;51.950;5.902;2022-09-12T15:20:33;5.32;;;2.70;;
38465;SDS011;24244;51.950;5.902;2022-09-12T15:23:00;6.68;;;2.80;;